Time;durP1;ratioP1;P1;durP2;ratioP2;P2;SDS_P1;SDS_P2;PMS_P1;PMS_P2;Temp;Humidity;BMP_temperature;BMP_pressure;BME280_temperature;BME280_humidity;BME280_pressure;Samples;Min_cycle;Max_cycle;Signal;HPM_P1;HPM_P2
2024/01/10 00:00:09;;;;;;;2.13;2.00;;;;;-3.90;102494.00;;;;5039720;28;20229;-69
2024/01/10 00:02:56;;;;;;;2.57;2.43;;;;;-3.90;102492.00;;;;5040403;28;20351;-71
2024/01/10 00:05:42;;;;;;;2.10;2.00;;;;;-3.90;102495.00;;;;5038161;28;20240;-70
2024/01/10 00:08:28;;;;;;;2.47;1.97;;;;;-3.90;102487.00;;;;5041880;28;20268;-70
2024/01/10 00:11:15;;;;;;;1.50;1.40;;;;;-3.90;102489.00;;;;5039353;28;20224;-71
2024/01/10 00:14:03;;;;;;;2.00;1.30;;;;;-3.90;102490.00;;;;5036778;28;20722;-69
2024/01/10 00:16:49;;;;;;;2.87;2.60;;;;;-3.90;102488.00;;;;5044711;28;20298;-69
2024/01/10 00:19:35;;;;;;;1.50;1.40;;;;;-3.90;102482.00;;;;5038337;28;20228;-70
2024/01/10 00:22:22;;;;;;;2.47;1.73;;;;;-3.90;102486.00;;;;5037702;28;20866;-70
2024/01/10 00:25:09;;;;;;;2.47;2.03;;;;;-3.90;102494.00;;;;5037993;28;20708;-71
2024/01/10 00:27:55;;;;;;;1.77;1.67;;;;;-4.00;102480.00;;;;5042302;28;20236;-68
2024/01/10 00:30:42;;;;;;;1.93;1.80;;;;;-4.00;102486.00;;;;5042302;28;20359;-68
2024/01/10 00:33:29;;;;;;;1.40;1.30;;;;;-4.00;102482.00;;;;5043877;28;20716;-70
2024/01/10 00:36:15;;;;;;;2.47;2.20;;;;;-4.00;102463.00;;;;5039767;28;20725;-69
2024/01/10 00:39:02;;;;;;;1.70;1.60;;;;;-3.90;102477.00;;;;5039394;28;20833;-70
2024/01/10 00:41:48;;;;;;;2.27;2.17;;;;;-4.00;102470.00;;;;5045695;28;20302;-69
2024/01/10 00:44:34;;;;;;;4.77;2.47;;;;;-4.00;102466.00;;;;5035860;28;20298;-68
2024/01/10 00:47:22;;;;;;;2.40;2.20;;;;;-4.10;102451.00;;;;5043719;28;20545;-71
2024/01/10 00:50:09;;;;;;;1.30;1.30;;;;;-4.10;102467.00;;;;5037256;28;20287;-68
2024/01/10 00:52:56;;;;;;;2.13;1.97;;;;;-4.20;102474.00;;;;5047162;28;20347;-69
2024/01/10 00:55:42;;;;;;;1.90;1.80;;;;;-4.10;102463.00;;;;5047290;28;20279;-69
2024/01/10 00:58:28;;;;;;;1.20;1.20;;;;;-4.20;102469.00;;;;5040354;28;20236;-68
2024/01/10 01:01:14;;;;;;;1.40;1.40;;;;;-4.20;102465.00;;;;5046062;28;20240;-69
2024/01/10 01:04:02;;;;;;;2.67;1.97;;;;;-4.20;102455.00;;;;5037184;28;20229;-68
2024/01/10 01:06:48;;;;;;;3.80;2.13;;;;;-4.10;102458.00;;;;5044642;28;20236;-70
2024/01/10 01:09:34;;;;;;;1.83;1.73;;;;;-4.30;102454.00;;;;5040829;28;20359;-71
2024/01/10 01:12:21;;;;;;;2.97;2.30;;;;;-4.20;102454.00;;;;5046650;28;20232;-70
2024/01/10 01:15:08;;;;;;;2.37;1.97;;;;;-4.10;102450.00;;;;5046136;28;20236;-70
2024/01/10 01:17:54;;;;;;;1.17;1.13;;;;;-4.20;102461.00;;;;5043196;28;20236;-68
2024/01/10 01:20:42;;;;;;;1.70;1.63;;;;;-4.20;102450.00;;;;5045860;28;20232;-70
2024/01/10 01:23:28;;;;;;;2.77;1.43;;;;;-4.30;102451.00;;;;5043290;28;20304;-69
2024/01/10 01:26:26;;;;;;;1.57;1.27;;;;;-4.20;102451.00;;;;5040531;28;20237;-70
2024/01/10 01:29:13;;;;;;;1.73;1.63;;;;;-4.30;102453.00;;;;5037354;28;20233;-70
2024/01/10 01:31:59;;;;;;;1.50;1.37;;;;;-4.30;102439.00;;;;5044068;28;20299;-72
2024/01/10 01:34:45;;;;;;;3.53;1.40;;;;;-4.40;102451.00;;;;5043917;28;20303;-72
2024/01/10 01:37:33;;;;;;;1.93;1.80;;;;;-4.40;102450.00;;;;5031485;28;20613;-70
2024/01/10 01:40:20;;;;;;;1.57;1.43;;;;;-4.30;102441.00;;;;5039338;28;20236;-68
2024/01/10 01:43:19;;;;;;;1.50;1.50;;;;;-4.30;102439.00;;;;5041627;28;20351;-67
2024/01/10 01:46:05;;;;;;;3.43;1.63;;;;;-4.30;102442.00;;;;5039403;28;20661;-70
2024/01/10 01:48:53;;;;;;;1.93;1.70;;;;;-4.20;102439.00;;;;5044894;28;20308;-69
2024/01/10 01:51:40;;;;;;;4.50;1.83;;;;;-4.20;102449.00;;;;5039975;28;20251;-70
2024/01/10 01:54:28;;;;;;;2.27;2.10;;;;;-4.20;102447.00;;;;5035098;28;20236;-68
2024/01/10 01:57:15;;;;;;;1.47;1.37;;;;;-4.20;102440.00;;;;5034497;28;20304;-67
2024/01/10 02:00:01;;;;;;;1.27;1.27;;;;;-4.30;102442.00;;;;5040892;28;20229;-68
2024/01/10 02:02:49;;;;;;;4.83;1.93;;;;;-4.40;102430.00;;;;5035628;28;20275;-66
2024/01/10 02:05:36;;;;;;;1.13;1.13;;;;;-4.40;102434.00;;;;5045671;28;20291;-68
2024/01/10 02:08:22;;;;;;;2.10;1.90;;;;;-4.40;102439.00;;;;5038300;28;20725;-68
2024/01/10 02:11:10;;;;;;;2.07;1.93;;;;;-4.30;102435.00;;;;5044437;28;20299;-67
2024/01/10 02:13:56;;;;;;;2.10;2.00;;;;;-4.40;102423.00;;;;5042193;28;20275;-68
2024/01/10 02:16:43;;;;;;;1.93;1.60;;;;;-4.40;102411.00;;;;5039674;28;20228;-67
2024/01/10 02:19:31;;;;;;;2.07;1.97;;;;;-4.30;102420.00;;;;5031992;28;20282;-68
2024/01/10 02:22:17;;;;;;;1.00;1.00;;;;;-4.40;102414.00;;;;5040657;28;20726;-68
2024/01/10 02:25:06;;;;;;;2.27;2.17;;;;;-4.40;102413.00;;;;5037731;28;20236;-69
2024/01/10 02:27:52;;;;;;;1.67;1.57;;;;;-4.50;102414.00;;;;5038445;28;20244;-68
2024/01/10 02:30:38;;;;;;;1.80;1.47;;;;;-4.50;102399.00;;;;5033617;28;20252;-69
2024/01/10 02:33:25;;;;;;;1.63;1.53;;;;;-4.50;102402.00;;;;5033379;28;20305;-68
2024/01/10 02:36:11;;;;;;;1.60;1.50;;;;;-4.50;102401.00;;;;5040395;28;20236;-69
2024/01/10 02:38:58;;;;;;;2.83;2.47;;;;;-4.40;102389.00;;;;5036175;28;20335;-68
2024/01/10 02:41:45;;;;;;;1.30;1.30;;;;;-4.40;102391.00;;;;5035580;28;20237;-68
2024/01/10 02:44:32;;;;;;;2.67;2.07;;;;;-4.40;102399.00;;;;5040723;28;20479;-68
2024/01/10 02:47:18;;;;;;;2.33;2.13;;;;;-4.40;102396.00;;;;5042788;28;20644;-70
2024/01/10 02:50:05;;;;;;;4.57;1.93;;;;;-4.30;102391.00;;;;5039770;28;20229;-69
2024/01/10 02:52:51;;;;;;;5.77;2.67;;;;;-4.40;102399.00;;;;5042330;28;20233;-69
2024/01/10 02:55:38;;;;;;;3.03;1.30;;;;;-4.50;102390.00;;;;5031284;28;20225;-69
2024/01/10 02:58:26;;;;;;;2.83;1.93;;;;;-4.30;102396.00;;;;5042652;28;20231;-68
2024/01/10 03:01:14;;;;;;;1.53;1.43;;;;;-4.40;102389.00;;;;5038058;28;20233;-68
2024/01/10 03:04:01;;;;;;;3.00;2.10;;;;;-4.40;102390.00;;;;5036820;28;20224;-69
2024/01/10 03:06:47;;;;;;;3.93;2.60;;;;;-4.40;102394.00;;;;5043136;28;20240;-69
2024/01/10 03:09:33;;;;;;;2.80;1.87;;;;;-4.40;102392.00;;;;5044423;28;20356;-68
2024/01/10 03:12:19;;;;;;;4.77;2.13;;;;;-4.50;102399.00;;;;5037114;28;20229;-70
2024/01/10 03:15:08;;;;;;;1.33;1.30;;;;;-4.40;102393.00;;;;5045231;28;20232;-69
2024/01/10 03:17:54;;;;;;;3.83;2.03;;;;;-4.40;102399.00;;;;5039102;28;20319;-68
2024/01/10 03:20:40;;;;;;;2.90;1.47;;;;;-4.40;102402.00;;;;5037475;28;20838;-70
2024/01/10 03:23:27;;;;;;;2.20;2.10;;;;;-4.40;102386.00;;;;5041293;28;20241;-69
2024/01/10 03:26:14;;;;;;;1.80;1.67;;;;;-4.50;102392.00;;;;5037413;28;20383;-68
2024/01/10 03:29:01;;;;;;;1.67;1.53;;;;;-4.40;102386.00;;;;5036404;28;20240;-70
2024/01/10 03:31:49;;;;;;;2.47;2.27;;;;;-4.40;102383.00;;;;5037755;28;20363;-67
2024/01/10 03:34:38;;;;;;;1.87;1.77;;;;;-4.40;102376.00;;;;5044149;28;20597;-69
2024/01/10 03:37:24;;;;;;;1.67;1.30;;;;;-4.40;102381.00;;;;5042213;28;20228;-68
2024/01/10 03:40:12;;;;;;;5.03;1.77;;;;;-4.30;102375.00;;;;5045013;28;20228;-69
2024/01/10 03:42:59;;;;;;;1.50;1.50;;;;;-4.30;102372.00;;;;5037517;28;20299;-68
2024/01/10 03:45:45;;;;;;;4.27;2.07;;;;;-4.40;102373.00;;;;5036555;28;20739;-68
2024/01/10 03:48:33;;;;;;;1.87;1.70;;;;;-4.50;102369.00;;;;5043821;28;20304;-70
2024/01/10 03:51:19;;;;;;;2.47;2.37;;;;;-4.50;102367.00;;;;5034489;28;20299;-68
2024/01/10 03:54:05;;;;;;;2.50;2.07;;;;;-4.50;102363.00;;;;5039590;28;20232;-69
2024/01/10 03:56:52;;;;;;;1.93;1.73;;;;;-4.50;102369.00;;;;5043884;28;20247;-69
2024/01/10 03:59:38;;;;;;;2.87;1.30;;;;;-4.50;102359.00;;;;5040436;28;20220;-70
2024/01/10 04:02:24;;;;;;;2.17;2.07;;;;;-4.50;102360.00;;;;5039578;28;20228;-69
2024/01/10 04:05:13;;;;;;;2.37;1.77;;;;;-4.50;102354.00;;;;5038081;28;20434;-68
2024/01/10 04:08:00;;;;;;;2.00;1.90;;;;;-4.50;102351.00;;;;5039218;28;20287;-68
2024/01/10 04:10:46;;;;;;;2.10;2.00;;;;;-4.50;102362.00;;;;5034932;28;20264;-69
2024/01/10 04:13:32;;;;;;;2.17;2.07;;;;;-4.60;102344.00;;;;5041363;28;20614;-70
2024/01/10 04:16:18;;;;;;;4.77;2.30;;;;;-4.60;102348.00;;;;5039239;28;20224;-68
2024/01/10 04:19:04;;;;;;;2.30;2.13;;;;;-4.50;102358.00;;;;5032486;28;20236;-70
2024/01/10 04:21:52;;;;;;;2.17;2.00;;;;;-4.60;102360.00;;;;5037322;28;20348;-68
2024/01/10 04:24:38;;;;;;;2.03;1.90;;;;;-4.70;102357.00;;;;5043091;28;20228;-69
2024/01/10 04:27:24;;;;;;;4.07;2.10;;;;;-4.70;102360.00;;;;5040357;28;20737;-68
2024/01/10 04:30:12;;;;;;;1.10;1.10;;;;;-4.80;102352.00;;;;5040202;28;20711;-68
2024/01/10 04:32:59;;;;;;;2.10;1.90;;;;;-4.80;102357.00;;;;5032704;28;20225;-69
2024/01/10 04:35:45;;;;;;;2.40;2.20;;;;;-4.70;102366.00;;;;5032622;28;20232;-68
2024/01/10 04:38:33;;;;;;;2.93;1.87;;;;;-4.70;102367.00;;;;5034838;28;20256;-70
2024/01/10 04:41:19;;;;;;;2.93;2.00;;;;;-4.60;102354.00;;;;5041188;28;20233;-68
2024/01/10 04:44:06;;;;;;;0.93;0.93;;;;;-4.70;102359.00;;;;5037811;28;20229;-69
2024/01/10 04:46:52;;;;;;;4.97;2.73;;;;;-4.80;102370.00;;;;5035197;28;20232;-67
2024/01/10 04:49:39;;;;;;;3.43;2.20;;;;;-4.70;102357.00;;;;5034342;28;20228;-69
2024/01/10 04:52:25;;;;;;;3.10;2.03;;;;;-4.80;102362.00;;;;5041055;28;20796;-70
2024/01/10 04:55:13;;;;;;;2.20;2.10;;;;;-4.80;102357.00;;;;5040062;28;20300;-70
2024/01/10 04:57:59;;;;;;;1.73;1.63;;;;;-4.80;102361.00;;;;5041684;28;20228;-71
2024/01/10 05:00:46;;;;;;;1.30;1.30;;;;;-4.80;102358.00;;;;5038718;28;20983;-68
2024/01/10 05:03:32;;;;;;;2.43;2.23;;;;;-4.80;102365.00;;;;5047383;28;20240;-69
2024/01/10 05:06:18;;;;;;;2.93;2.67;;;;;-4.90;102361.00;;;;5043504;28;20225;-68
2024/01/10 05:09:05;;;;;;;2.23;1.87;;;;;-4.90;102365.00;;;;5034319;28;20263;-69
2024/01/10 05:11:54;;;;;;;1.90;1.80;;;;;-4.80;102366.00;;;;5039060;28;20240;-69
2024/01/10 05:14:40;;;;;;;4.57;3.00;;;;;-4.90;102358.00;;;;5042294;28;20810;-69
2024/01/10 05:17:27;;;;;;;1.10;1.10;;;;;-4.80;102365.00;;;;5044825;28;20243;-68
2024/01/10 05:20:13;;;;;;;1.60;1.60;;;;;-4.90;102369.00;;;;5046493;28;20310;-69
2024/01/10 05:23:01;;;;;;;1.70;1.60;;;;;-4.90;102369.00;;;;5040661;28;20236;-69
2024/01/10 05:25:48;;;;;;;2.17;2.07;;;;;-4.80;102371.00;;;;5031254;28;20294;-69
2024/01/10 05:28:36;;;;;;;1.27;1.27;;;;;-4.90;102369.00;;;;5044315;28;20237;-68
2024/01/10 05:31:22;;;;;;;1.40;1.30;;;;;-4.90;102366.00;;;;5046467;28;20382;-68
2024/01/10 05:34:08;;;;;;;2.97;1.73;;;;;-4.90;102353.00;;;;5038807;28;20233;-68
2024/01/10 05:36:55;;;;;;;3.33;1.70;;;;;-4.90;102358.00;;;;5043354;28;20595;-68
2024/01/10 05:39:42;;;;;;;2.53;2.33;;;;;-4.90;102352.00;;;;5040018;28;20350;-68
2024/01/10 05:42:28;;;;;;;3.70;2.17;;;;;-4.80;102361.00;;;;5044491;28;20605;-68
2024/01/10 05:45:17;;;;;;;1.67;1.57;;;;;-4.90;102353.00;;;;5044641;28;20228;-68
2024/01/10 05:48:06;;;;;;;2.00;1.90;;;;;-4.90;102349.00;;;;5041597;28;20239;-67
2024/01/10 05:50:53;;;;;;;1.23;1.23;;;;;-5.00;102354.00;;;;5037704;28;20260;-71
2024/01/10 05:53:40;;;;;;;3.03;2.57;;;;;-5.00;102345.00;;;;5042013;28;20290;-68
2024/01/10 05:56:28;;;;;;;2.83;1.63;;;;;-5.00;102349.00;;;;5042892;28;20232;-68
2024/01/10 05:59:16;;;;;;;2.57;1.80;;;;;-5.00;102344.00;;;;5038915;28;20749;-69
2024/01/10 06:02:04;;;;;;;2.10;1.67;;;;;-4.90;102347.00;;;;5039696;28;20224;-68
2024/01/10 06:04:50;;;;;;;1.90;1.80;;;;;-5.00;102352.00;;;;5045389;28;20302;-70
2024/01/10 06:07:37;;;;;;;2.67;2.13;;;;;-5.10;102350.00;;;;5038838;28;20241;-69
2024/01/10 06:10:24;;;;;;;3.53;2.73;;;;;-5.00;102355.00;;;;5042382;28;20278;-69
2024/01/10 06:13:10;;;;;;;1.10;1.10;;;;;-5.00;102355.00;;;;5039100;28;20233;-69
2024/01/10 06:15:57;;;;;;;3.07;2.87;;;;;-4.90;102337.00;;;;5035640;28;20597;-69
2024/01/10 06:18:44;;;;;;;3.33;2.23;;;;;-4.90;102328.00;;;;5041575;28;20245;-68
2024/01/10 06:21:31;;;;;;;1.57;1.53;;;;;-5.10;102327.00;;;;5045325;28;20282;-71
2024/01/10 06:24:17;;;;;;;2.83;2.07;;;;;-5.00;102334.00;;;;5040465;28;20812;-69
2024/01/10 06:27:04;;;;;;;2.83;2.20;;;;;-5.00;102336.00;;;;5046259;28;20713;-68
2024/01/10 06:29:50;;;;;;;2.17;2.07;;;;;-5.10;102344.00;;;;5043921;28;20236;-71
2024/01/10 06:32:36;;;;;;;1.57;1.57;;;;;-5.10;102343.00;;;;5041830;28;20275;-68
2024/01/10 06:35:24;;;;;;;1.60;1.57;;;;;-5.10;102348.00;;;;5043091;28;20298;-68
2024/01/10 06:38:11;;;;;;;2.40;2.30;;;;;-5.10;102352.00;;;;5043353;28;20232;-69
2024/01/10 06:40:57;;;;;;;1.67;1.43;;;;;-5.10;102337.00;;;;5037916;28;20363;-69
2024/01/10 06:43:44;;;;;;;3.17;2.63;;;;;-5.10;102344.00;;;;5033483;28;20356;-70
2024/01/10 06:46:31;;;;;;;2.87;2.67;;;;;-5.00;102362.00;;;;5035375;28;20240;-70
2024/01/10 06:49:18;;;;;;;3.03;2.03;;;;;-4.90;102353.00;;;;5040904;28;20798;-68
2024/01/10 06:52:06;;;;;;;5.43;2.43;;;;;-5.00;102339.00;;;;5033948;28;20240;-68
2024/01/10 06:54:53;;;;;;;2.47;2.23;;;;;-5.00;102335.00;;;;5034158;28;20224;-72
2024/01/10 06:57:40;;;;;;;14.63;2.50;;;;;-5.10;102344.00;;;;5043433;28;20663;-72
2024/01/10 07:00:26;;;;;;;1.67;1.57;;;;;-5.10;102348.00;;;;5044810;28;20343;-71
2024/01/10 07:03:13;;;;;;;3.67;2.37;;;;;-5.10;102332.00;;;;5042474;28;20240;-70
2024/01/10 07:05:59;;;;;;;3.17;2.53;;;;;-5.10;102338.00;;;;5038924;28;20225;-69
2024/01/10 07:08:49;;;;;;;3.37;2.00;;;;;-5.10;102342.00;;;;5033241;28;20375;-71
2024/01/10 07:11:35;;;;;;;2.23;1.83;;;;;-5.00;102351.00;;;;5038036;28;20299;-70
2024/01/10 07:14:22;;;;;;;2.07;1.87;;;;;-5.10;102356.00;;;;5034281;28;20228;-72
2024/01/10 07:17:08;;;;;;;2.63;2.43;;;;;-5.10;102358.00;;;;5038846;28;20229;-71
2024/01/10 07:19:56;;;;;;;1.37;1.33;;;;;-5.00;102367.00;;;;5036672;28;20236;-71
2024/01/10 07:22:43;;;;;;;2.60;1.77;;;;;-4.90;102363.00;;;;5042145;28;20235;-71
2024/01/10 07:25:32;;;;;;;1.97;1.87;;;;;-4.80;102372.00;;;;5030730;28;20982;-72
2024/01/10 07:28:18;;;;;;;4.57;2.70;;;;;-4.80;102373.00;;;;5040794;28;20600;-69
2024/01/10 07:31:05;;;;;;;2.80;2.53;;;;;-4.90;102371.00;;;;5036589;28;20252;-72
2024/01/10 07:33:52;;;;;;;2.33;1.73;;;;;-4.90;102371.00;;;;5041149;28;20233;-73
2024/01/10 07:36:43;;;;;;;3.33;2.80;;;;;-4.80;102372.00;;;;5040777;28;20246;-71
2024/01/10 07:39:29;;;;;;;4.20;2.30;;;;;-5.00;102348.00;;;;5039788;28;20303;-70
2024/01/10 07:42:18;;;;;;;2.20;2.00;;;;;-5.00;102353.00;;;;5041002;28;20792;-70
2024/01/10 07:45:05;;;;;;;2.43;1.80;;;;;-5.00;102358.00;;;;5039923;28;20245;-75
2024/01/10 07:47:51;;;;;;;2.40;2.20;;;;;-5.00;102369.00;;;;5040323;28;20248;-73
2024/01/10 07:50:37;;;;;;;2.40;2.20;;;;;-4.90;102369.00;;;;5038202;28;20240;-75
2024/01/10 07:53:26;;;;;;;3.40;2.50;;;;;-4.80;102372.00;;;;5041366;28;20240;-76
2024/01/10 07:56:14;;;;;;;1.80;1.73;;;;;-4.90;102367.00;;;;5039759;28;20336;-76
2024/01/10 07:59:02;;;;;;;3.17;2.00;;;;;-4.70;102367.00;;;;5042910;28;20602;-73
2024/01/10 08:01:58;;;;;;;4.20;2.83;;;;;-4.70;102361.00;;;;5036209;28;20275;-71
2024/01/10 08:04:44;;;;;;;2.13;1.90;;;;;-4.70;102355.00;;;;5043063;28;20238;-73
2024/01/10 08:07:32;;;;;;;2.10;1.90;;;;;-4.70;102348.00;;;;5044227;28;20350;-73
2024/01/10 08:10:18;;;;;;;2.33;2.17;;;;;-4.70;102343.00;;;;5032414;28;20774;-72
2024/01/10 08:13:05;;;;;;;8.80;3.30;;;;;-4.80;102353.00;;;;5040231;28;20357;-72
2024/01/10 08:15:54;;;;;;;4.13;2.67;;;;;-4.80;102351.00;;;;5033584;28;20229;-71
2024/01/10 08:18:40;;;;;;;3.10;2.77;;;;;-4.70;102349.00;;;;5043393;28;20609;-73
2024/01/10 08:21:27;;;;;;;3.17;2.47;;;;;-4.60;102366.00;;;;5036221;28;20231;-73
2024/01/10 08:24:13;;;;;;;3.43;2.53;;;;;-4.50;102360.00;;;;5036727;28;20228;-71
2024/01/10 08:26:59;;;;;;;1.93;1.83;;;;;-4.60;102356.00;;;;5035080;28;20833;-71
2024/01/10 08:29:46;;;;;;;12.33;2.63;;;;;-4.50;102359.00;;;;5042190;28;20244;-72
2024/01/10 08:32:35;;;;;;;3.97;3.20;;;;;-4.40;102368.00;;;;5035954;28;20978;-71
2024/01/10 08:35:21;;;;;;;3.07;2.83;;;;;-4.50;102362.00;;;;5042498;28;20364;-71
2024/01/10 08:38:12;;;;;;;4.10;2.50;;;;;-4.50;102368.00;;;;5041150;28;20368;-74
2024/01/10 08:40:59;;;;;;;7.17;3.47;;;;;-4.40;102359.00;;;;5046832;28;20232;-74
2024/01/10 08:43:45;;;;;;;3.23;2.37;;;;;-4.50;102361.00;;;;5039918;28;20298;-73
2024/01/10 08:46:31;;;;;;;3.53;3.00;;;;;-4.40;102364.00;;;;5040267;28;20228;-71
2024/01/10 08:49:19;;;;;;;6.70;2.00;;;;;-4.40;102357.00;;;;5040682;28;20363;-71
2024/01/10 08:52:06;;;;;;;4.33;2.73;;;;;-4.40;102367.00;;;;5045388;28;20616;-71
2024/01/10 08:54:52;;;;;;;2.53;2.33;;;;;-4.40;102362.00;;;;5041360;28;20902;-71
2024/01/10 08:57:38;;;;;;;2.20;2.10;;;;;-4.40;102362.00;;;;5041795;28;20282;-73
2024/01/10 09:00:25;;;;;;;4.70;3.33;;;;;-4.30;102367.00;;;;5040759;28;20910;-72
2024/01/10 09:03:11;;;;;;;3.77;2.20;;;;;-4.20;102366.00;;;;5043969;28;20229;-68
2024/01/10 09:05:59;;;;;;;2.77;2.27;;;;;-4.20;102357.00;;;;5043995;28;20753;-72
2024/01/10 09:08:56;;;;;;;4.97;3.37;;;;;-4.20;102361.00;;;;5035597;28;20813;-73
2024/01/10 09:11:42;;;;;;;3.03;2.83;;;;;-4.10;102355.00;;;;5040210;28;20236;-70
2024/01/10 09:14:31;;;;;;;4.03;3.40;;;;;-3.90;102348.00;;;;5045051;28;20251;-71
2024/01/10 09:17:17;;;;;;;4.10;2.57;;;;;-3.90;102360.00;;;;5037512;28;20842;-69
2024/01/10 09:20:05;;;;;;;4.00;2.17;;;;;-3.80;102353.00;;;;5045542;28;20233;-74
2024/01/10 09:22:52;;;;;;;5.37;3.13;;;;;-3.80;102353.00;;;;5036198;28;20352;-68
2024/01/10 09:25:38;;;;;;;4.00;3.10;;;;;-3.70;102358.00;;;;5038014;28;20287;-72
2024/01/10 09:28:26;;;;;;;4.03;3.53;;;;;-3.50;102356.00;;;;5038084;28;20231;-71
2024/01/10 09:31:12;;;;;;;2.50;2.30;;;;;-3.40;102361.00;;;;5035497;28;20233;-71
2024/01/10 09:33:58;;;;;;;4.77;4.10;;;;;-3.40;102359.00;;;;5043436;28;20228;-72
2024/01/10 09:36:45;;;;;;;5.70;2.97;;;;;-3.30;102359.00;;;;5038050;28;20968;-71
2024/01/10 09:39:33;;;;;;;5.37;2.43;;;;;-3.20;102357.00;;;;5040190;28;20747;-71
2024/01/10 09:42:20;;;;;;;2.60;2.40;;;;;-3.10;102352.00;;;;5037560;28;20628;-72
2024/01/10 09:45:08;;;;;;;4.37;2.93;;;;;-3.00;102354.00;;;;5045419;28;20294;-72
2024/01/10 09:47:57;;;;;;;2.30;1.87;;;;;-2.90;102355.00;;;;5039527;28;20287;-71
2024/01/10 09:50:44;;;;;;;4.07;2.43;;;;;-2.80;102345.00;;;;5040794;28;20257;-72
2024/01/10 09:53:36;;;;;;;7.03;2.93;;;;;-2.70;102360.00;;;;5038927;28;20384;-72
2024/01/10 09:56:24;;;;;;;5.93;3.33;;;;;-2.70;102350.00;;;;5036021;28;20803;-71
2024/01/10 09:59:12;;;;;;;3.30;2.43;;;;;-2.70;102351.00;;;;5043294;28;20229;-72
2024/01/10 10:01:59;;;;;;;8.43;3.17;;;;;-2.60;102357.00;;;;5045543;28;20236;-70
2024/01/10 10:04:53;;;;;;;4.27;2.97;;;;;-2.40;102355.00;;;;5039874;28;20465;-73
2024/01/10 10:07:47;;;;;;;7.33;3.47;;;;;-2.30;102344.00;;;;5041324;28;20752;-71
2024/01/10 10:10:34;;;;;;;9.10;3.73;;;;;-2.30;102356.00;;;;5035184;28;20237;-73
2024/01/10 10:13:30;;;;;;;5.47;2.73;;;;;-2.10;102351.00;;;;5040708;28;20592;-70
2024/01/10 10:16:24;;;;;;;6.10;3.50;;;;;-2.00;102350.00;;;;5046029;28;20723;-73
2024/01/10 10:19:11;;;;;;;3.73;2.90;;;;;-2.00;102362.00;;;;5037631;28;20304;-72
2024/01/10 10:22:09;;;;;;;4.73;3.17;;;;;-1.80;102360.00;;;;5036299;28;20232;-71
2024/01/10 10:24:55;;;;;;;7.43;3.00;;;;;-1.70;102362.00;;;;5029359;28;20788;-73
2024/01/10 10:27:41;;;;;;;4.97;3.83;;;;;-1.70;102353.00;;;;5041718;28;20233;-72
2024/01/10 10:30:29;;;;;;;3.60;2.77;;;;;-1.60;102352.00;;;;5041201;28;20231;-72
2024/01/10 10:33:18;;;;;;;4.60;3.07;;;;;-1.50;102360.00;;;;5041611;28;20337;-71
2024/01/10 10:36:05;;;;;;;3.07;2.63;;;;;-1.40;102357.00;;;;5033216;28;20304;-73
2024/01/10 10:38:52;;;;;;;5.33;3.13;;;;;-1.20;102355.00;;;;5043983;28;20935;-72
2024/01/10 10:41:40;;;;;;;9.03;3.40;;;;;-1.20;102346.00;;;;5044139;28;20644;-76
2024/01/10 10:44:32;;;;;;;3.37;2.33;;;;;-1.20;102347.00;;;;5041228;28;20244;-72
2024/01/10 10:47:24;;;;;;;11.33;2.67;;;;;-0.90;102349.00;;;;5044739;28;20342;-70
2024/01/10 10:50:15;;;;;;;8.27;3.33;;;;;-0.80;102353.00;;;;5045355;28;20240;-71
2024/01/10 10:53:04;;;;;;;8.60;3.87;;;;;-0.60;102342.00;;;;5036996;28;20241;-71
2024/01/10 10:55:51;;;;;;;6.87;3.37;;;;;-0.50;102339.00;;;;5039710;28;20372;-71
2024/01/10 10:58:40;;;;;;;7.67;4.33;;;;;-0.60;102347.00;;;;5036684;28;20237;-73
2024/01/10 11:01:27;;;;;;;5.87;3.67;;;;;-0.50;102335.00;;;;5038822;28;20295;-71
2024/01/10 11:04:16;;;;;;;4.33;3.07;;;;;-0.40;102336.00;;;;5039821;28;20236;-72
2024/01/10 11:07:02;;;;;;;5.93;3.23;;;;;-0.30;102346.00;;;;5040592;28;20687;-71
2024/01/10 11:09:51;;;;;;;4.50;3.90;;;;;-0.20;102346.00;;;;5036697;28;20705;-71
2024/01/10 11:13:02;;;;;;;5.00;2.97;;;;;-0.20;102334.00;;;;5042466;28;20498;-68
2024/01/10 11:16:05;;;;;;;7.47;4.30;;;;;-0.20;102335.00;;;;5037180;28;20256;-71
2024/01/10 11:19:11;;;;;;;8.23;3.47;;;;;-0.10;102332.00;;;;5035827;28;20605;-71
2024/01/10 11:22:10;;;;;;;8.23;3.90;;;;;-0.10;102336.00;;;;5035464;28;20909;-74
2024/01/10 11:24:57;;;;;;;5.37;4.03;;;;;0.00;102332.00;;;;5044372;28;20605;-73
2024/01/10 11:27:53;;;;;;;7.27;3.70;;;;;0.10;102328.00;;;;5028867;28;20303;-73
2024/01/10 11:30:51;;;;;;;7.40;3.70;;;;;0.10;102332.00;;;;5025837;28;20248;-72
2024/01/10 11:33:42;;;;;;;8.20;4.37;;;;;0.20;102323.00;;;;5040049;28;20232;-72
2024/01/10 11:36:29;;;;;;;6.97;3.83;;;;;0.30;102320.00;;;;5025930;28;20229;-72
2024/01/10 11:39:17;;;;;;;6.37;4.90;;;;;0.30;102312.00;;;;5036130;28;20653;-72
2024/01/10 11:42:03;;;;;;;8.47;3.70;;;;;0.40;102327.00;;;;5028105;28;20256;-69
2024/01/10 11:44:49;;;;;;;5.33;3.77;;;;;0.40;102321.00;;;;5034963;28;20237;-71
2024/01/10 11:47:39;;;;;;;6.63;4.77;;;;;0.40;102315.00;;;;5036847;28;20305;-72
2024/01/10 11:50:26;;;;;;;5.37;3.80;;;;;0.50;102326.00;;;;5035393;28;20221;-72
2024/01/10 11:53:12;;;;;;;6.00;4.33;;;;;0.50;102322.00;;;;5034604;28;20233;-73
2024/01/10 11:56:10;;;;;;;10.77;4.43;;;;;0.70;102319.00;;;;5040425;28;20243;-73
2024/01/10 11:59:03;;;;;;;10.60;4.73;;;;;0.90;102320.00;;;;5033516;28;20242;-74
2024/01/10 12:01:50;;;;;;;6.97;4.43;;;;;0.70;102323.00;;;;5030514;28;20235;-72
2024/01/10 12:04:36;;;;;;;9.63;4.70;;;;;0.70;102310.00;;;;5028515;28;20838;-72
2024/01/10 12:07:32;;;;;;;7.33;3.37;;;;;0.70;102317.00;;;;5038080;28;20224;-73
2024/01/10 12:10:18;;;;;;;5.80;3.67;;;;;0.60;102311.00;;;;5036154;28;20771;-72
2024/01/10 12:13:06;;;;;;;7.57;4.00;;;;;0.80;102317.00;;;;5033042;28;20234;-73
2024/01/10 12:15:52;;;;;;;8.17;4.63;;;;;0.90;102313.00;;;;5031987;28;20717;-71
2024/01/10 12:18:38;;;;;;;9.37;4.53;;;;;1.00;102317.00;;;;5039756;28;20238;-75
2024/01/10 12:21:25;;;;;;;8.50;4.27;;;;;1.00;102310.00;;;;5038766;28;20239;-73
2024/01/10 12:24:11;;;;;;;5.67;4.70;;;;;1.00;102312.00;;;;5046048;28;20232;-73
2024/01/10 12:26:58;;;;;;;7.97;4.63;;;;;1.00;102302.00;;;;5044230;28;20242;-76
2024/01/10 12:29:49;;;;;;;8.00;4.80;;;;;0.90;102302.00;;;;5040887;28;20718;-73
2024/01/10 12:32:35;;;;;;;8.70;5.33;;;;;1.00;102307.00;;;;5041719;28;20234;-71
2024/01/10 12:35:22;;;;;;;5.90;4.73;;;;;1.00;102308.00;;;;5045927;28;20799;-73
2024/01/10 12:38:08;;;;;;;8.40;4.77;;;;;1.10;102312.00;;;;5048584;28;20241;-73
2024/01/10 12:40:54;;;;;;;9.37;4.53;;;;;1.00;102315.00;;;;5042004;28;20237;-74
2024/01/10 12:43:41;;;;;;;8.13;4.33;;;;;0.80;102310.00;;;;5040811;28;20277;-71
2024/01/10 12:46:28;;;;;;;7.23;3.97;;;;;0.90;102310.00;;;;5043905;28;20843;-69
2024/01/10 12:49:15;;;;;;;14.20;3.83;;;;;1.00;102309.00;;;;5046483;28;20230;-72
2024/01/10 12:52:01;;;;;;;7.03;3.97;;;;;1.00;102312.00;;;;5040078;28;20239;-71
2024/01/10 12:54:54;;;;;;;8.30;4.97;;;;;0.80;102315.00;;;;5042604;28;20292;-72
2024/01/10 12:57:41;;;;;;;9.27;4.77;;;;;0.80;102298.00;;;;5046400;28;20228;-71
2024/01/10 13:00:28;;;;;;;6.50;4.10;;;;;0.80;102305.00;;;;5043651;28;20231;-72
2024/01/10 13:03:17;;;;;;;8.67;5.40;;;;;0.70;102315.00;;;;5047256;28;20228;-73
2024/01/10 13:06:03;;;;;;;13.67;5.97;;;;;0.60;102314.00;;;;5035724;28;20226;-73
2024/01/10 13:08:50;;;;;;;10.00;4.73;;;;;0.70;102314.00;;;;5044381;28;20305;-74
2024/01/10 13:11:36;;;;;;;6.93;4.27;;;;;0.80;102317.00;;;;5034438;28;20301;-71
2024/01/10 13:14:22;;;;;;;11.00;4.27;;;;;0.70;102313.00;;;;5040711;28;20230;-71
2024/01/10 13:17:09;;;;;;;6.60;4.03;;;;;0.70;102320.00;;;;5039602;28;20236;-72
2024/01/10 13:19:58;;;;;;;16.27;4.87;;;;;0.70;102315.00;;;;5040729;28;20279;-72
2024/01/10 13:22:45;;;;;;;6.13;4.23;;;;;0.70;102311.00;;;;5035720;28;20239;-69
2024/01/10 13:25:32;;;;;;;6.40;3.00;;;;;0.70;102320.00;;;;5033385;28;20234;-72
2024/01/10 13:28:19;;;;;;;5.67;4.00;;;;;0.70;102320.00;;;;5031317;28;20285;-73
2024/01/10 13:31:05;;;;;;;5.50;3.73;;;;;0.70;102321.00;;;;5029645;28;20235;-72
2024/01/10 13:33:52;;;;;;;12.30;4.43;;;;;0.80;102316.00;;;;5033571;28;20235;-72
2024/01/10 13:36:42;;;;;;;9.43;4.03;;;;;0.80;102319.00;;;;5030558;28;20280;-71
2024/01/10 13:39:29;;;;;;;5.23;4.17;;;;;0.80;102325.00;;;;5032621;28;20238;-72
2024/01/10 13:42:15;;;;;;;5.83;4.43;;;;;0.70;102324.00;;;;5034364;28;20305;-73
2024/01/10 13:45:02;;;;;;;9.57;3.70;;;;;0.70;102328.00;;;;5036575;28;20263;-72
2024/01/10 13:47:48;;;;;;;5.07;3.33;;;;;0.70;102324.00;;;;5034298;28;20783;-69